createdAt,value
2024-01-09T00:01:30.316Z,-7.67
2024-01-09T00:03:58.206Z,-7.62
2024-01-09T00:06:26.081Z,-7.58
2024-01-09T00:08:54.139Z,-7.53
2024-01-09T00:11:21.995Z,-7.52
2024-01-09T00:13:49.797Z,-7.49
2024-01-09T00:16:17.554Z,-7.50
2024-01-09T00:18:45.467Z,-7.51
2024-01-09T00:21:13.326Z,-7.56
2024-01-09T00:23:41.171Z,-7.60
2024-01-09T00:26:09.168Z,-7.66
2024-01-09T00:28:38.508Z,-7.72
2024-01-09T00:31:06.694Z,-7.77
2024-01-09T00:33:34.802Z,-7.81
2024-01-09T00:36:06.548Z,-7.87
2024-01-09T00:38:38.518Z,-7.92
2024-01-09T00:41:06.376Z,-7.91
2024-01-09T00:43:34.159Z,-7.89
2024-01-09T00:46:01.991Z,-7.87
2024-01-09T00:48:30.119Z,-7.85
2024-01-09T00:50:58.108Z,-7.80
2024-01-09T00:53:26.058Z,-7.76
2024-01-09T00:55:53.968Z,-7.72
2024-01-09T00:58:21.795Z,-7.65
2024-01-09T01:00:49.907Z,-7.62
2024-01-09T01:03:17.692Z,-7.64
2024-01-09T01:05:47.310Z,-7.62
2024-01-09T01:08:15.122Z,-7.66
2024-01-09T01:10:43.119Z,-7.72
2024-01-09T01:13:11.188Z,-7.77
2024-01-09T01:15:39.090Z,-7.92
2024-01-09T01:18:07.231Z,-7.89
2024-01-09T01:20:35.189Z,-7.95
2024-01-09T01:23:03.063Z,-8.01
2024-01-09T01:25:30.917Z,-8.10
2024-01-09T01:27:58.730Z,-8.12
2024-01-09T01:30:26.657Z,-8.13
2024-01-09T01:32:54.792Z,-8.13
2024-01-09T01:35:22.662Z,-8.13
2024-01-09T01:37:50.395Z,-8.12
2024-01-09T01:40:18.507Z,-8.10
2024-01-09T01:42:46.265Z,-8.06
2024-01-09T01:45:17.911Z,-8.04
2024-01-09T01:47:47.350Z,-8.03
2024-01-09T01:50:16.583Z,-8.00
2024-01-09T01:52:47.285Z,-8.01
2024-01-09T01:55:16.044Z,-8.13
2024-01-09T01:57:44.463Z,-8.03
2024-01-09T02:00:13.210Z,-8.06
2024-01-09T02:02:41.343Z,-8.10
2024-01-09T02:05:12.297Z,-8.17
2024-01-09T02:07:40.537Z,-8.22
2024-01-09T02:10:08.852Z,-8.27
2024-01-09T02:12:36.891Z,-8.35
2024-01-09T02:15:05.974Z,-8.37
2024-01-09T02:17:37.674Z,-8.40
2024-01-09T02:20:12.127Z,-8.38
2024-01-09T02:22:40.101Z,-8.37
2024-01-09T02:25:08.309Z,-8.36
2024-01-09T02:28:00.665Z,-8.27
2024-01-09T02:30:28.797Z,-8.21
2024-01-09T02:32:57.044Z,-8.15
2024-01-09T02:35:25.022Z,-8.12
2024-01-09T02:37:52.995Z,-8.09
2024-01-09T02:40:20.949Z,-8.07
2024-01-09T02:42:48.717Z,-8.05
2024-01-09T02:45:16.820Z,-8.06
2024-01-09T02:47:44.764Z,-8.08
2024-01-09T02:50:13.073Z,-8.12
2024-01-09T02:52:42.071Z,-8.17
2024-01-09T02:55:09.767Z,-8.18
2024-01-09T02:57:41.539Z,-8.25
2024-01-09T03:00:10.247Z,-8.31
2024-01-09T03:02:38.854Z,-8.37
2024-01-09T03:05:08.478Z,-8.43
2024-01-09T03:07:36.728Z,-8.42
2024-01-09T03:10:05.203Z,-8.36
2024-01-09T03:12:33.534Z,-8.34
2024-01-09T03:15:02.161Z,-8.27
2024-01-09T03:17:30.066Z,-8.22
2024-01-09T03:19:57.942Z,-8.17
2024-01-09T03:22:25.742Z,-8.12
2024-01-09T03:24:53.570Z,-8.10
2024-01-09T03:27:21.538Z,-8.06
2024-01-09T03:29:49.433Z,-8.04
2024-01-09T03:32:17.283Z,-8.06
2024-01-09T03:34:45.065Z,-8.09
2024-01-09T03:37:14.743Z,-8.13
2024-01-09T03:39:46.259Z,-8.19
2024-01-09T03:42:17.638Z,-8.23
2024-01-09T03:44:46.306Z,-8.29
2024-01-09T03:47:14.172Z,-8.34
2024-01-09T03:49:42.094Z,-8.38
2024-01-09T03:52:12.212Z,-8.42
2024-01-09T03:54:39.958Z,-8.45
2024-01-09T03:57:08.033Z,-8.40
2024-01-09T03:59:35.794Z,-8.38
2024-01-09T04:02:03.904Z,-8.35
2024-01-09T04:04:31.871Z,-8.33
2024-01-09T04:06:59.671Z,-8.29
2024-01-09T04:09:28.240Z,-8.27
2024-01-09T04:11:58.827Z,-8.25
2024-01-09T04:14:27.731Z,-8.20
2024-01-09T04:16:55.558Z,-8.18
2024-01-09T04:19:23.574Z,-8.18
2024-01-09T04:21:51.428Z,-8.20
2024-01-09T04:24:19.374Z,-8.22
2024-01-09T04:26:47.299Z,-8.26
2024-01-09T04:29:17.711Z,-8.32
2024-01-09T04:31:45.631Z,-8.37
2024-01-09T04:34:13.706Z,-8.42
2024-01-09T04:36:41.613Z,-8.46
2024-01-09T04:39:09.460Z,-8.50
2024-01-09T04:41:37.640Z,-8.54
2024-01-09T04:44:05.567Z,-8.51
2024-01-09T04:46:33.384Z,-8.48
2024-01-09T04:49:08.722Z,-8.47
2024-01-09T04:51:37.744Z,-8.44
2024-01-09T04:54:24.595Z,-8.42
2024-01-09T04:56:52.868Z,-8.35
2024-01-09T04:59:41.563Z,-8.28
2024-01-09T05:02:22.429Z,-8.21
2024-01-09T05:04:51.905Z,-8.20
2024-01-09T05:07:26.700Z,-8.22
2024-01-09T05:10:15.173Z,-8.25
2024-01-09T05:13:05.683Z,-8.29
2024-01-09T05:15:33.672Z,-8.35
2024-01-09T05:18:02.726Z,-8.41
2024-01-09T05:20:30.808Z,-8.46
2024-01-09T05:22:58.705Z,-8.49
2024-01-09T05:25:26.559Z,-8.57
2024-01-09T05:30:22.405Z,-8.58
2024-01-09T05:32:50.403Z,-8.58
2024-01-09T05:35:18.334Z,-8.57
2024-01-09T05:37:47.891Z,-8.54
2024-01-09T05:40:18.114Z,-8.50
2024-01-09T05:42:46.094Z,-8.55
2024-01-09T05:45:15.103Z,-8.42
2024-01-09T05:47:46.320Z,-8.40
2024-01-09T05:50:16.136Z,-8.35
2024-01-09T05:52:43.985Z,-8.30
2024-01-09T05:55:12.376Z,-8.29
2024-01-09T05:57:40.217Z,-8.30
2024-01-09T06:00:09.117Z,-8.31
2024-01-09T06:02:37.155Z,-8.34
2024-01-09T06:05:05.596Z,-8.38
2024-01-09T06:07:33.902Z,-8.44
2024-01-09T06:10:01.717Z,-8.48
2024-01-09T06:12:30.095Z,-8.52
2024-01-09T06:14:58.474Z,-8.56
2024-01-09T06:17:26.374Z,-8.62
2024-01-09T06:19:54.700Z,-8.63
2024-01-09T06:22:22.633Z,-8.61
2024-01-09T06:24:50.464Z,-8.59
2024-01-09T06:27:18.534Z,-8.61
2024-01-09T06:29:46.324Z,-8.50
2024-01-09T06:32:14.330Z,-8.47
2024-01-09T06:34:43.654Z,-8.46
2024-01-09T06:37:11.562Z,-8.44
2024-01-09T06:39:39.715Z,-8.40
2024-01-09T06:42:08.067Z,-8.38
2024-01-09T06:44:35.873Z,-8.43
2024-01-09T06:47:03.761Z,-8.43
2024-01-09T06:49:32.251Z,-8.42
2024-01-09T06:52:00.013Z,-8.45
2024-01-09T06:54:27.941Z,-8.47
2024-01-09T06:57:00.982Z,-8.52
2024-01-09T07:44:37.743Z,-8.45
2024-01-09T07:47:08.956Z,-8.53
2024-01-09T07:49:37.135Z,-8.54
2024-01-09T07:52:05.669Z,-8.58
2024-01-09T07:54:33.642Z,-8.64
2024-01-09T07:57:01.897Z,-8.61
2024-01-09T07:59:30.284Z,-8.57
2024-01-09T08:01:58.553Z,-8.57
2024-01-09T08:04:26.408Z,-8.53
2024-01-09T08:06:55.331Z,-8.48
2024-01-09T08:09:23.398Z,-8.46
2024-01-09T08:11:51.217Z,-8.34
2024-01-09T08:14:19.518Z,-8.31
2024-01-09T08:16:47.772Z,-8.22
